Time;durP1;ratioP1;P1;durP2;ratioP2;P2;SDS_P1;SDS_P2;PMS_P1;PMS_P2;Temp;Humidity;BMP_temperature;BMP_pressure;BME280_temperature;BME280_humidity;BME280_pressure;Samples;Min_cycle;Max_cycle;Signal;HPM_P1;HPM_P2
2023/08/16 00:02:06;;;;;;;;;;;;;;;-145.06;100.00;60892.56;4735383;29;19915;-92
2023/08/16 00:04:45;;;;;;;;;;;;;;;-145.06;100.00;60892.56;4749440;29;20254;-91
2023/08/16 00:07:24;;;;;;;;;;;;;;;-145.06;100.00;60892.56;4730597;29;19919;-92
2023/08/16 00:10:09;;;;;;;;;;;;;;;-145.06;100.00;60892.56;4726124;29;19915;-92
2023/08/16 00:12:48;;;;;;;;;;;;;;;-145.06;100.00;60892.56;4712340;29;19916;-92
2023/08/16 00:15:26;;;;;;;;;;;;;;;-145.06;100.00;60892.56;4703347;29;20547;-92
2023/08/16 00:18:05;;;;;;;;;;;;;;;-145.06;100.00;60892.56;4716248;29;19993;-92
2023/08/16 00:20:44;;;;;;;;;;;;;;;-145.06;100.00;60892.56;4717053;29;20381;-91
2023/08/16 00:23:24;;;;;;;;;;;;;;;-145.06;100.00;60892.56;4720251;29;19919;-91
2023/08/16 00:26:02;;;;;;;;;;;;;;;-145.06;100.00;60892.56;4710434;29;20350;-92
2023/08/16 00:28:42;;;;;;;;;;;;;;;-145.06;100.00;60892.56;4716136;29;19920;-92
2023/08/16 00:31:20;;;;;;;;;;;;;;;-145.06;100.00;60892.56;4714184;29;20513;-91
2023/08/16 00:33:59;;;;;;;;;;;;;;;-145.06;100.00;60892.56;4723334;29;19920;-92
2023/08/16 00:36:38;;;;;;;;;;;;;;;-145.06;100.00;60892.56;4709415;29;19919;-92
2023/08/16 00:39:18;;;;;;;;;;;;;;;-145.06;100.00;60892.56;4711897;29;19919;-92
2023/08/16 00:41:56;;;;;;;;;;;;;;;-145.06;100.00;60892.56;4708676;29;19916;-91
2023/08/16 00:44:35;;;;;;;;;;;;;;;-145.06;100.00;60892.56;4716737;29;19920;-91
2023/08/16 00:47:15;;;;;;;;;;;;;;;-145.06;100.00;60892.56;4731130;29;19915;-92
2023/08/16 00:49:53;;;;;;;;;;;;;;;-145.06;100.00;60892.56;4720006;29;19916;-92
2023/08/16 00:52:32;;;;;;;;;;;;;;;-145.06;100.00;60892.56;4725599;29;19920;-92
2023/08/16 00:55:12;;;;;;;;;;;;;;;-145.06;100.00;60892.56;4735036;29;19915;-92
2023/08/16 00:57:51;;;;;;;;;;;;;;;-145.06;100.00;60892.56;4719762;29;20409;-93
2023/08/16 01:00:30;;;;;;;;;;;;;;;-145.06;100.00;60892.56;4720506;29;19916;-92
2023/08/16 01:03:08;;;;;;;;;;;;;;;-145.06;100.00;60892.56;4718812;29;20519;-92
2023/08/16 01:05:47;;;;;;;;;;;;;;;-145.06;100.00;60892.56;4720234;29;20272;-91
2023/08/16 01:08:26;;;;;;;;;;;;;;;-145.06;100.00;60892.56;4723902;29;19982;-92
2023/08/16 01:11:07;;;;;;;;;;;;;;;-145.06;100.00;60892.56;4745408;29;19915;-92
2023/08/16 01:13:51;;;;;;;;;;;;;;;-145.06;100.00;60892.56;4738644;29;19915;-92
2023/08/16 01:16:33;;;;;;;;;;;;;;;-145.06;100.00;60892.56;4702087;29;19920;-92
2023/08/16 01:19:18;;;;;;;;;;;;;;;-145.06;100.00;60892.56;4702405;29;20011;-92
2023/08/16 01:22:09;;;;;;;;;;;;;;;-145.06;100.00;60892.56;4706339;29;19916;-92
2023/08/16 01:25:04;;;;;;;;;;;;;;;-145.06;100.00;60892.56;4715167;29;19915;-92
2023/08/16 01:27:43;;;;;;;;;;;;;;;-145.06;100.00;60892.56;4702092;29;19916;-92
2023/08/16 01:30:22;;;;;;;;;;;;;;;-145.06;100.00;60892.56;4701569;29;19916;-91
2023/08/16 01:33:05;;;;;;;;;;;;;;;-145.06;100.00;60892.56;4695913;29;19916;-92
2023/08/16 01:35:44;;;;;;;;;;;;;;;-145.06;100.00;60892.56;4712252;29;19916;-93
2023/08/16 01:38:24;;;;;;;;;;;;;;;-145.06;100.00;60892.56;4714536;29;19972;-92
2023/08/16 01:41:29;;;;;;;;;;;;;;;-145.06;100.00;60892.56;4722875;29;19915;-91
2023/08/16 01:44:09;;;;;;;;;;;;;;;-145.06;100.00;60892.56;4727620;29;19916;-92
2023/08/16 01:46:49;;;;;;;;;;;;;;;-145.06;100.00;60892.56;4711308;29;19919;-92
2023/08/16 01:49:28;;;;;;;;;;;;;;;-145.06;100.00;60892.56;4719580;29;19915;-92
2023/08/16 01:52:07;;;;;;;;;;;;;;;-145.06;100.00;60892.56;4719459;29;19915;-92
2023/08/16 01:54:46;;;;;;;;;;;;;;;-145.06;100.00;60892.56;4719609;29;19950;-93
2023/08/16 01:57:25;;;;;;;;;;;;;;;-145.06;100.00;60892.56;4739414;29;19915;-91
2023/08/16 02:00:04;;;;;;;;;;;;;;;-145.06;100.00;60892.56;4718244;29;19916;-92
2023/08/16 02:02:43;;;;;;;;;;;;;;;-145.06;100.00;60892.56;4719257;29;19915;-92
2023/08/16 02:05:22;;;;;;;;;;;;;;;-145.06;100.00;60892.56;4719561;29;20397;-91
2023/08/16 02:08:01;;;;;;;;;;;;;;;-145.06;100.00;60892.56;4709266;29;19916;-92
2023/08/16 02:10:43;;;;;;;;;;;;;;;-145.06;100.00;60892.56;4702560;29;20369;-91
2023/08/16 02:13:22;;;;;;;;;;;;;;;-145.06;100.00;60892.56;4719775;29;19916;-92
2023/08/16 02:16:01;;;;;;;;;;;;;;;-145.06;100.00;60892.56;4737300;29;19915;-92
2023/08/16 02:18:41;;;;;;;;;;;;;;;-145.06;100.00;60892.56;4720967;29;19982;-92
2023/08/16 02:21:21;;;;;;;;;;;;;;;-145.06;100.00;60892.56;4718312;29;19919;-92
2023/08/16 02:24:01;;;;;;;;;;;;;;;-145.06;100.00;60892.56;4718739;29;19916;-92
2023/08/16 02:26:40;;;;;;;;;;;;;;;-145.06;100.00;60892.56;4718642;29;20640;-92
2023/08/16 02:29:20;;;;;;;;;;;;;;;-145.06;100.00;60892.56;4718761;29;19915;-92
2023/08/16 02:31:59;;;;;;;;;;;;;;;-145.06;100.00;60892.56;4731249;29;19919;-92
2023/08/16 02:34:38;;;;;;;;;;;;;;;-145.06;100.00;60892.56;4719290;29;19915;-90
2023/08/16 02:37:18;;;;;;;;;;;;;;;-145.06;100.00;60892.56;4723709;29;19916;-92
2023/08/16 02:39:57;;;;;;;;;;;;;;;-145.06;100.00;60892.56;4727523;29;19927;-91
2023/08/16 02:42:36;;;;;;;;;;;;;;;-145.06;100.00;60892.56;4719872;29;20246;-92
2023/08/16 02:45:16;;;;;;;;;;;;;;;-145.06;100.00;60892.56;4718177;29;19947;-92
2023/08/16 02:47:57;;;;;;;;;;;;;;;-145.06;100.00;60892.56;4717759;29;19955;-92
2023/08/16 02:50:39;;;;;;;;;;;;;;;-145.06;100.00;60892.56;4717784;29;19919;-92
2023/08/16 02:53:18;;;;;;;;;;;;;;;-145.06;100.00;60892.56;4716643;29;19919;-93
2023/08/16 02:55:57;;;;;;;;;;;;;;;-145.06;100.00;60892.56;4704783;29;19916;-93
2023/08/16 02:58:37;;;;;;;;;;;;;;;-145.06;100.00;60892.56;4722594;29;20442;-93
2023/08/16 03:01:18;;;;;;;;;;;;;;;-145.06;100.00;60892.56;4710204;29;20246;-93
2023/08/16 03:03:57;;;;;;;;;;;;;;;-145.06;100.00;60892.56;4718466;29;19915;-92
2023/08/16 03:06:36;;;;;;;;;;;;;;;-145.06;100.00;60892.56;4717493;29;19923;-92
2023/08/16 03:09:16;;;;;;;;;;;;;;;-145.06;100.00;60892.56;4722933;29;20006;-92
2023/08/16 03:11:57;;;;;;;;;;;;;;;-145.06;100.00;60892.56;4717938;29;20330;-92
2023/08/16 03:14:37;;;;;;;;;;;;;;;-145.06;100.00;60892.56;4731294;29;19955;-92
2023/08/16 03:17:15;;;;;;;;;;;;;;;-145.06;100.00;60892.56;4710256;29;19916;-92
2023/08/16 03:19:56;;;;;;;;;;;;;;;-145.06;100.00;60892.56;4699707;29;19916;-90
2023/08/16 03:22:35;;;;;;;;;;;;;;;-145.06;100.00;60892.56;4713544;29;19916;-93
2023/08/16 03:25:14;;;;;;;;;;;;;;;-145.06;100.00;60892.56;4748325;29;19966;-92
2023/08/16 03:27:54;;;;;;;;;;;;;;;-145.06;100.00;60892.56;4736746;29;19915;-91
2023/08/16 03:30:33;;;;;;;;;;;;;;;-145.06;100.00;60892.56;4734381;29;20354;-91
2023/08/16 03:33:22;;;;;;;;;;;;;;;-145.06;100.00;60892.56;4917814;27;19916;-92
2023/08/16 03:36:01;;;;;;;;;;;;;;;-145.06;100.00;60892.56;4916576;28;20019;-94
2023/08/16 03:38:41;;;;;;;;;;;;;;;20.44;100.00;60892.56;4916165;28;19951;-93
2023/08/16 03:41:21;;;;;;;;;;;;;;;-145.06;100.00;60892.56;4899171;28;19913;-92
2023/08/16 03:44:02;;;;;;;;;;;;;;;-145.06;100.00;60892.56;4897359;28;19999;-93
2023/08/16 04:00:40;;;;;;;;;;;;;;;-145.06;100.00;60892.56;4890843;28;19999;-95
2023/08/16 04:03:20;;;;;;;;;;;;;;;-145.06;100.00;60892.56;4893305;28;19917;-92
2023/08/16 04:05:59;;;;;;;;;;;;;;;-145.06;100.00;60892.56;4895841;28;19913;-91
2023/08/16 04:08:39;;;;;;;;;;;;;;;-145.06;100.00;60892.56;4903200;28;19917;-93
2023/08/16 04:11:21;;;;;;;;;;;;;;;-145.06;100.00;60892.56;4902903;28;19916;-92
2023/08/16 04:14:01;;;;;;;;;;;;;;;-145.06;100.00;60892.56;4910376;28;20247;-92
2023/08/16 04:17:16;;;;;;;;;;;;;;;;;;;;;
2023/08/16 04:23:44;;;;;;;;;;;;;;;;;;;;;
2023/08/16 04:26:24;;;;;;;;;;;;;;;-145.06;100.00;60892.56;4916372;28;19913;-92
2023/08/16 04:36:13;;;;;;;;;;;;;;;-145.06;100.00;60892.56;4825955;28;19920;-94
2023/08/16 04:38:53;;;;;;;;;;;;;;;-145.06;100.00;60892.56;4894701;28;20258;-93
2023/08/16 04:41:32;;;;;;;;;;;;;;;-145.06;100.00;60892.56;4892116;28;19913;-92
2023/08/16 04:44:11;;;;;;;;;;;;;;;-145.06;100.00;60892.56;4877768;28;21316;-93
2023/08/16 04:46:50;;;;;;;;;;;;;;;-145.06;100.00;60892.56;4869216;28;19917;-90
2023/08/16 04:49:29;;;;;;;;;;;;;;;-145.06;100.00;60892.56;4871881;28;19920;-92
2023/08/16 04:52:08;;;;;;;;;;;;;;;-145.06;100.00;60892.56;4887481;28;19917;-91
2023/08/16 04:54:47;;;;;;;;;;;;;;;-145.06;100.00;60892.56;4882788;28;19917;-91
2023/08/16 04:57:28;;;;;;;;;;;;;;;-145.06;100.00;60892.56;4902592;28;19916;-92
2023/08/16 05:00:08;;;;;;;;;;;;;;;-145.06;100.00;60892.56;4879142;28;20007;-92
2023/08/16 05:02:47;;;;;;;;;;;;;;;-145.06;100.00;60892.56;4864799;28;19956;-92
2023/08/16 05:05:28;;;;;;;;;;;;;;;-145.06;100.00;60892.56;4877329;28;20240;-91
2023/08/16 05:08:08;;;;;;;;;;;;;;;-145.06;100.00;60892.56;4868400;28;20012;-91
2023/08/16 05:10:47;;;;;;;;;;;;;;;-145.06;100.00;60892.56;4880991;28;20530;-91
2023/08/16 05:13:27;;;;;;;;;;;;;;;-145.06;100.00;60892.56;4884020;28;19917;-93
2023/08/16 05:19:37;;;;;;;;;;;;;;;-145.06;100.00;60892.56;4891877;28;19913;-95
2023/08/16 05:22:28;;;;;;;;;;;;;;;-145.06;100.00;60892.56;4885210;28;19912;-93
2023/08/16 05:32:45;;;;;;;;;;;;;;;;;;;;;
2023/08/16 05:35:09;;;;;;;;;;;;;;;-145.06;100.00;60892.56;4886205;28;19929;-94
2023/08/16 05:38:06;;;;;;;;;;;;;;;-145.06;100.00;60892.56;4885297;28;19913;-94
2023/08/16 05:40:55;;;;;;;;;;;;;;;-145.06;100.00;60892.56;4884812;28;19913;-92
2023/08/16 05:43:37;;;;;;;;;;;;;;;-145.06;100.00;60892.56;4885644;28;19913;-94
2023/08/16 05:49:52;;;;;;;;;;;;;;;-145.06;100.00;60892.56;4806199;28;20292;-94
2023/08/16 05:52:31;;;;;;;;;;;;;;;-145.06;100.00;60892.56;4795463;28;19969;-95
2023/08/16 05:55:27;;;;;;;;;;;;;;;-145.06;100.00;60892.56;4884461;28;19908;-93
2023/08/16 05:58:12;;;;;;;;;;;;;;;-145.06;100.00;60892.56;4885987;28;19913;-94
2023/08/16 06:01:02;;;;;;;;;;;;;;;-145.06;100.00;60892.56;4885269;28;19917;-94
2023/08/16 06:06:53;;;;;;;;;;;;;;;-145.06;100.00;60892.56;4882412;28;19913;-94
2023/08/16 06:09:37;;;;;;;;;;;;;;;-145.06;100.00;60892.56;4884825;28;19940;-93
2023/08/16 06:12:17;;;;;;;;;;;;;;;-145.06;100.00;60892.56;4884918;28;19913;-92
2023/08/16 06:22:33;;;;;;;;;;;;;;;20.46;100.00;60892.56;4797391;28;19918;-94
2023/08/16 06:25:15;;;;;;;;;;;;;;;-145.06;100.00;60892.56;4808150;28;19914;-93
2023/08/16 06:28:03;;;;;;;;;;;;;;;-145.06;100.00;60892.56;4799012;28;19961;-94
2023/08/16 06:34:13;;;;;;;;;;;;;;;-145.06;100.00;60892.56;4854113;28;19917;-94
2023/08/16 06:41:00;;;;;;;;;;;;;;;-145.06;100.00;60892.56;4855979;28;19913;-94
2023/08/16 06:47:03;;;;;;;;;;;;;;;-145.06;100.00;60892.56;4891950;28;19912;-94
2023/08/16 06:57:40;;;;;;;;;;;;;;;-145.06;100.00;60892.56;5062565;22;20067;-93
2023/08/16 07:00:19;;;;;;;;;;;;;;;-145.06;100.00;60892.56;4885005;28;19913;-93
2023/08/16 07:03:10;;;;;;;;;;;;;;;-145.06;100.00;60892.56;4870129;28;19913;-93
2023/08/16 07:06:09;;;;;;;;;;;;;;;-145.06;100.00;60892.56;4868875;28;19913;-94
2023/08/16 07:09:11;;;;;;;;;;;;;;;-145.06;100.00;60892.56;4869823;28;19913;-94
2023/08/16 07:11:55;;;;;;;;;;;;;;;-145.06;100.00;60892.56;4869881;28;19921;-93
2023/08/16 07:14:34;;;;;;;;;;;;;;;-145.06;100.00;60892.56;4869905;28;20243;-94
2023/08/16 07:17:15;;;;;;;;;;;;;;;-145.06;100.00;60892.56;4869063;28;19917;-94
2023/08/16 07:20:04;;;;;;;;;;;;;;;;;;;;;
2023/08/16 07:26:13;;;;;;;;;;;;;;;-145.06;100.00;60892.56;4880093;28;19955;-92
2023/08/16 07:29:10;;;;;;;;;;;;;;;-145.06;100.00;60892.56;4869783;28;19912;-95
2023/08/16 07:32:10;;;;;;;;;;;;;;;-145.06;100.00;60892.56;4866149;28;19948;-93
2023/08/16 07:38:12;;;;;;;;;;;;;;;-145.06;100.00;60892.56;4881519;28;19944;-93
2023/08/16 07:44:33;;;;;;;;;;;;;;;-145.06;100.00;60892.56;4828454;28;19913;-93
2023/08/16 07:51:11;;;;;;;;;;;;;;;-145.06;100.00;60892.56;4880436;28;19913;-93
2023/08/16 07:53:51;;;;;;;;;;;;;;;-145.06;100.00;60892.56;4846215;28;19917;-92
2023/08/16 07:56:41;;;;;;;;;;;;;;;-145.06;100.00;60892.56;4866526;28;19960;-92
2023/08/16 08:00:06;;;;;;;;;;;;;;;;;;;;;
2023/08/16 08:06:00;;;;;;;;;;;;;;;-145.06;100.00;60892.56;4804435;28;19914;-93
2023/08/16 08:09:12;;;;;;;;;;;;;;;;;;;;;
2023/08/16 08:11:55;;;;;;;;;;;;;;;-145.06;100.00;60892.56;4788738;28;19918;-93
2023/08/16 08:18:30;;;;;;;;;;;;;;;;;;;;;
2023/08/16 08:21:51;;;;;;;;;;;;;;;-145.06;100.00;60892.56;4884608;28;20003;-93
2023/08/16 08:24:49;;;;;;;;;;;;;;;-145.06;100.00;60892.56;4870453;28;19913;-92
2023/08/16 08:27:28;;;;;;;;;;;;;;;-145.06;100.00;60892.56;4870902;28;19913;-93
2023/08/16 08:30:14;;;;;;;;;;;;;;;-145.06;100.00;60892.56;4870841;28;19996;-93
2023/08/16 08:33:00;;;;;;;;;;;;;;;-145.06;100.00;60892.56;4870009;28;19917;-94
2023/08/16 08:35:40;;;;;;;;;;;;;;;-145.06;100.00;60892.56;4869603;28;19913;-93
2023/08/16 08:38:25;;;;;;;;;;;;;;;-145.06;100.00;60892.56;4869957;28;19912;-93
2023/08/16 08:44:04;;;;;;;;;;;;;;;-145.06;100.00;60892.56;5637983;22;20393;-93
2023/08/16 08:46:46;;;;;;;;;;;;;;;-145.06;100.00;60892.56;4850526;28;19921;-94
2023/08/16 08:49:29;;;;;;;;;;;;;;;-145.06;100.00;60892.56;4850390;28;19957;-93
2023/08/16 08:52:48;;;;;;;;;;;;;;;;;;;;;
2023/08/16 08:55:40;;;;;;;;;;;;;;;-145.06;100.00;60892.56;4828555;28;20424;-93
2023/08/16 08:58:28;;;;;;;;;;;;;;;-145.06;100.00;60892.56;4831022;28;19910;-95
2023/08/16 09:01:26;;;;;;;;;;;;;;;-145.06;100.00;60892.56;4830920;28;20359;-94
2023/08/16 09:07:33;;;;;;;;;;;;;;;-145.06;100.00;60892.56;4814897;28;19913;-93
2023/08/16 09:17:50;;;;;;;;;;;;;;;-145.06;100.00;60892.56;4756565;29;19915;-93
2023/08/16 09:48:54;;;;;;;;;;;;;;;-145.06;100.00;60892.56;5448266;23;19927;-88
2023/08/16 09:51:40;;;;;;;;;;;;;;;-145.06;100.00;60892.56;4802960;28;19926;-93
2023/08/16 09:54:19;;;;;;;;;;;;;;;-145.06;100.00;60892.56;4813233;28;19914;-91
2023/08/16 09:57:02;;;;;;;;;;;;;;;-145.06;100.00;60892.56;4813285;28;19914;-92
2023/08/16 09:59:41;;;;;;;;;;;;;;;-145.06;100.00;60892.56;4794810;28;20375;-92
2023/08/16 10:02:29;;;;;;;;;;;;;;;-145.06;100.00;60892.56;4794285;28;20292;-93
2023/08/16 10:05:11;;;;;;;;;;;;;;;-145.06;100.00;60892.56;4794024;28;19950;-93
2023/08/16 10:08:05;;;;;;;;;;;;;;;-145.06;100.00;60892.56;4794004;28;19914;-93
2023/08/16 10:10:47;;;;;;;;;;;;;;;-145.06;100.00;60892.56;4793120;28;19915;-93
2023/08/16 10:13:40;;;;;;;;;;;;;;;;;;;;;
2023/08/16 10:16:25;;;;;;;;;;;;;;;-145.06;100.00;60892.56;4814845;28;20364;-91
2023/08/16 10:19:08;;;;;;;;;;;;;;;-145.06;100.00;60892.56;4794775;28;20000;-93
2023/08/16 10:21:48;;;;;;;;;;;;;;;-145.06;100.00;60892.56;4794827;28;20257;-93
2023/08/16 10:24:30;;;;;;;;;;;;;;;-145.06;100.00;60892.56;4795062;28;19914;-93
2023/08/16 10:27:28;;;;;;;;;;;;;;;-145.06;100.00;60892.56;4793619;28;19914;-92
2023/08/16 10:30:21;;;;;;;;;;;;;;;-145.06;100.00;60892.56;4794384;28;20000;-92
2023/08/16 10:33:43;;;;;;;;;;;;;;;;;;;;;
2023/08/16 10:36:28;;;;;;;;;;;;;;;-145.06;100.00;60892.56;4833688;28;19913;-93
2023/08/16 10:42:32;;;;;;;;;;;;;;;-145.06;100.00;60892.56;4824310;28;19917;-92
2023/08/16 10:45:22;;;;;;;;;;;;;;;-145.06;100.00;60892.56;4812175;28;20413;-92
2023/08/16 10:48:09;;;;;;;;;;;;;;;-145.06;100.00;60892.56;4812459;28;19913;-92
2023/08/16 10:51:00;;;;;;;;;;;;;;;-145.06;100.00;60892.56;4810714;28;19918;-92
2023/08/16 10:56:48;;;;;;;;;;;;;;;-145.06;100.00;60892.56;4830724;28;19917;-93
2023/08/16 10:59:35;;;;;;;;;;;;;;;-145.06;100.00;60892.56;4810003;28;19917;-93
2023/08/16 11:02:15;;;;;;;;;;;;;;;-145.06;100.00;60892.56;4809969;28;19957;-93
2023/08/16 11:05:06;;;;;;;;;;;;;;;-145.06;100.00;60892.56;4809847;28;19914;-92
2023/08/16 11:07:56;;;;;;;;;;;;;;;-145.06;100.00;60892.56;4809738;28;19913;-94
2023/08/16 11:10:36;;;;;;;;;;;;;;;-145.06;100.00;60892.56;4810346;28;19914;-93
2023/08/16 11:13:17;;;;;;;;;;;;;;;-145.06;100.00;60892.56;4811384;28;20000;-92
2023/08/16 11:15:59;;;;;;;;;;;;;;;-145.06;100.00;60892.56;4812164;28;19918;-93
2023/08/16 11:18:53;;;;;;;;;;;;;;;-145.06;100.00;60892.56;4833662;28;19914;-93
2023/08/16 11:21:34;;;;;;;;;;;;;;;-145.06;100.00;60892.56;4811990;28;20532;-93
2023/08/16 11:24:13;;;;;;;;;;;;;;;-145.06;100.00;60892.56;4823573;28;19960;-93
2023/08/16 11:26:53;;;;;;;;;;;;;;;-145.06;100.00;60892.56;4831382;28;19913;-92
2023/08/16 11:29:32;;;;;;;;;;;;;;;-145.06;100.00;60892.56;4830839;28;19913;-92
2023/08/16 11:32:11;;;;;;;;;;;;;;;-145.06;100.00;60892.56;4830804;28;19917;-93
2023/08/16 11:35:01;;;;;;;;;;;;;;;-145.06;100.00;60892.56;4831146;28;19958;-91
2023/08/16 11:37:43;;;;;;;;;;;;;;;-145.06;100.00;60892.56;4820198;28;19914;-92
2023/08/16 11:40:23;;;;;;;;;;;;;;;-145.06;100.00;60892.56;4811961;28;19914;-93
2023/08/16 11:43:05;;;;;;;;;;;;;;;23.12;100.00;60892.56;4811519;28;19914;-91
2023/08/16 11:45:50;;;;;;;;;;;;;;;23.14;100.00;60892.56;4812302;28;19914;-93
2023/08/16 11:48:34;;;;;;;;;;;;;;;23.19;100.00;60892.56;4811913;28;19914;-93
2023/08/16 11:51:15;;;;;;;;;;;;;;;23.25;100.00;60892.56;4811807;28;19945;-92
2023/08/16 11:53:54;;;;;;;;;;;;;;;23.32;100.00;60892.56;4813153;28;19918;-94
2023/08/16 11:56:59;;;;;;;;;;;;;;;23.38;100.00;60892.56;4814447;28;20391;-93
2023/08/16 11:59:38;;;;;;;;;;;;;;;23.45;100.00;60892.56;4813916;28;19914;-92
2023/08/16 12:02:17;;;;;;;;;;;;;;;23.51;100.00;60892.56;4814168;28;19941;-92
2023/08/16 12:04:56;;;;;;;;;;;;;;;23.56;100.00;60892.56;4812524;28;19933;-92
2023/08/16 12:07:47;;;;;;;;;;;;;;;23.62;100.00;60892.56;4812687;28;20433;-93
2023/08/16 12:10:37;;;;;;;;;;;;;;;-145.06;100.00;60892.56;4812436;28;19917;-93
2023/08/16 12:13:40;;;;;;;;;;;;;;;-145.06;100.00;60892.56;4793546;28;20372;-93
2023/08/16 12:16:33;;;;;;;;;;;;;;;-145.06;100.00;60892.56;4793933;28;20352;-94
2023/08/16 12:19:19;;;;;;;;;;;;;;;-145.06;100.00;60892.56;4794358;28;19918;-94
2023/08/16 12:22:05;;;;;;;;;;;;;;;-145.06;100.00;60892.56;4794580;28;19945;-94
2023/08/16 12:24:44;;;;;;;;;;;;;;;-145.06;100.00;60892.56;4794171;28;20396;-92
2023/08/16 12:27:32;;;;;;;;;;;;;;;-145.06;100.00;60892.56;4787739;28;19914;-92
2023/08/16 12:30:12;;;;;;;;;;;;;;;-145.06;100.00;60892.56;4793869;28;19914;-91
2023/08/16 12:32:51;;;;;;;;;;;;;;;-145.06;100.00;60892.56;4818502;28;20398;-91
2023/08/16 12:35:32;;;;;;;;;;;;;;;-145.06;100.00;60892.56;4823057;28;19918;-92
2023/08/16 12:41:29;;;;;;;;;;;;;;;-145.06;100.00;60892.56;4831173;28;20436;-93
2023/08/16 12:44:08;;;;;;;;;;;;;;;-145.06;100.00;60892.56;4813307;28;19914;-93
2023/08/16 12:46:49;;;;;;;;;;;;;;;-145.06;100.00;60892.56;4814691;28;19918;-93
2023/08/16 12:49:29;;;;;;;;;;;;;;;-145.06;100.00;60892.56;4815220;28;19956;-94
2023/08/16 12:52:21;;;;;;;;;;;;;;;;;;;;;
2023/08/16 12:55:00;;;;;;;;;;;;;;;-145.06;100.00;60892.56;4816405;28;19914;-91
2023/08/16 12:57:40;;;;;;;;;;;;;;;-145.06;100.00;60892.56;4814905;28;19914;-93
2023/08/16 13:00:20;;;;;;;;;;;;;;;-145.06;100.00;60892.56;4813161;28;19913;-93
2023/08/16 13:03:01;;;;;;;;;;;;;;;-145.06;100.00;60892.56;4813504;28;19914;-93
2023/08/16 13:05:41;;;;;;;;;;;;;;;-145.06;100.00;60892.56;4810680;28;20575;-91
2023/08/16 13:08:21;;;;;;;;;;;;;;;-145.06;100.00;60892.56;4810912;28;19913;-91
2023/08/16 13:11:01;;;;;;;;;;;;;;;-145.06;100.00;60892.56;4812390;28;19913;-92
2023/08/16 13:13:40;;;;;;;;;;;;;;;-145.06;100.00;60892.56;4811076;28;20009;-91
2023/08/16 13:16:19;;;;;;;;;;;;;;;-145.06;100.00;60892.56;4810161;28;20260;-92
2023/08/16 13:19:00;;;;;;;;;;;;;;;-145.06;100.00;60892.56;4809553;28;19913;-91
2023/08/16 13:21:40;;;;;;;;;;;;;;;-145.06;100.00;60892.56;4813494;28;19997;-91
2023/08/16 13:24:19;;;;;;;;;;;;;;;-145.06;100.00;60892.56;4815846;28;19953;-91
2023/08/16 13:26:59;;;;;;;;;;;;;;;-145.06;100.00;60892.56;4791431;28;19945;-92
2023/08/16 13:29:38;;;;;;;;;;;;;;;-145.06;100.00;60892.56;4797814;28;20029;-91
2023/08/16 13:32:20;;;;;;;;;;;;;;;-145.06;100.00;60892.56;4802889;28;20276;-93
2023/08/16 13:34:58;;;;;;;;;;;;;;;-145.06;100.00;60892.56;4810185;28;19913;-92
2023/08/16 13:37:37;;;;;;;;;;;;;;;-145.06;100.00;60892.56;4810083;28;19914;-91
2023/08/16 13:40:46;;;;;;;;;;;;;;;-145.06;100.00;60892.56;4810319;28;20503;-92
2023/08/16 13:43:38;;;;;;;;;;;;;;;-145.06;100.00;60892.56;4831897;28;20008;-93
2023/08/16 13:46:17;;;;;;;;;;;;;;;-145.06;100.00;60892.56;4803869;28;19948;-91
2023/08/16 13:48:57;;;;;;;;;;;;;;;-145.06;100.00;60892.56;4822980;28;19945;-93
2023/08/16 13:51:36;;;;;;;;;;;;;;;-145.06;100.00;60892.56;4810355;28;20443;-91
2023/08/16 13:54:16;;;;;;;;;;;;;;;-145.06;100.00;60892.56;4832042;28;19913;-91
2023/08/16 13:56:56;;;;;;;;;;;;;;;-145.06;100.00;60892.56;4810895;28;19914;-92
2023/08/16 13:59:35;;;;;;;;;;;;;;;-145.06;100.00;60892.56;4810327;28;19914;-93
2023/08/16 14:02:14;;;;;;;;;;;;;;;-145.06;100.00;60892.56;4810756;28;19914;-92
2023/08/16 14:04:54;;;;;;;;;;;;;;;-145.06;100.00;60892.56;4810597;28;19914;-92
2023/08/16 14:07:34;;;;;;;;;;;;;;;-145.06;100.00;60892.56;4810892;28;19914;-92
2023/08/16 14:10:13;;;;;;;;;;;;;;;-145.06;100.00;60892.56;4820061;28;19913;-91
2023/08/16 14:12:52;;;;;;;;;;;;;;;-145.06;100.00;60892.56;4808828;28;19965;-92
2023/08/16 14:15:31;;;;;;;;;;;;;;;-145.06;100.00;60892.56;4808462;28;20383;-91
2023/08/16 14:18:11;;;;;;;;;;;;;;;-145.06;100.00;60892.56;4809540;28;19914;-92
2023/08/16 14:20:51;;;;;;;;;;;;;;;-145.06;100.00;60892.56;4808779;28;20252;-91
2023/08/16 14:23:30;;;;;;;;;;;;;;;-145.06;100.00;60892.56;4808904;28;19918;-91
2023/08/16 14:26:08;;;;;;;;;;;;;;;-145.06;100.00;60892.56;4808354;28;19913;-91
2023/08/16 14:28:48;;;;;;;;;;;;;;;-145.06;100.00;60892.56;4808812;28;19918;-91
2023/08/16 14:31:30;;;;;;;;;;;;;;;-145.06;100.00;60892.56;4808817;28;19918;-92
2023/08/16 14:37:26;;;;;;;;;;;;;;;-145.06;100.00;60892.56;4838303;28;19913;-92
2023/08/16 14:40:06;;;;;;;;;;;;;;;-145.06;100.00;60892.56;4809865;28;20351;-92
2023/08/16 14:42:50;;;;;;;;;;;;;;;-145.06;100.00;60892.56;4810080;28;19914;-92
2023/08/16 14:45:29;;;;;;;;;;;;;;;-145.06;100.00;60892.56;4810276;28;19914;-92
2023/08/16 14:48:09;;;;;;;;;;;;;;;-145.06;100.00;60892.56;4809572;28;19953;-93
2023/08/16 14:50:48;;;;;;;;;;;;;;;-145.06;100.00;60892.56;4809710;28;19917;-93
2023/08/16 14:53:27;;;;;;;;;;;;;;;-145.06;100.00;60892.56;4790995;28;19922;-93
2023/08/16 14:56:08;;;;;;;;;;;;;;;-145.06;100.00;60892.56;4791707;28;19949;-93
2023/08/16 14:58:49;;;;;;;;;;;;;;;-145.06;100.00;60892.56;4790607;28;19918;-92
2023/08/16 15:01:28;;;;;;;;;;;;;;;-145.06;100.00;60892.56;4790638;28;19914;-92
2023/08/16 15:04:07;;;;;;;;;;;;;;;-145.06;100.00;60892.56;4790826;28;19918;-93
2023/08/16 15:06:47;;;;;;;;;;;;;;;-145.06;100.00;60892.56;4790876;28;19914;-93
2023/08/16 15:09:27;;;;;;;;;;;;;;;-145.06;100.00;60892.56;4790698;28;19914;-92
2023/08/16 15:12:07;;;;;;;;;;;;;;;-145.06;100.00;60892.56;4804234;28;19984;-92
2023/08/16 15:14:46;;;;;;;;;;;;;;;-145.06;100.00;60892.56;4809175;28;20498;-93
2023/08/16 15:17:31;;;;;;;;;;;;;;;-145.06;100.00;60892.56;4808871;28;19914;-93
2023/08/16 15:20:11;;;;;;;;;;;;;;;-145.06;100.00;60892.56;4809143;28;19914;-92
2023/08/16 15:22:50;;;;;;;;;;;;;;;-145.06;100.00;60892.56;4809201;28;19997;-92
2023/08/16 15:25:29;;;;;;;;;;;;;;;-145.06;100.00;60892.56;4830000;28;20363;-93
2023/08/16 15:28:08;;;;;;;;;;;;;;;-145.06;100.00;60892.56;4811363;28;19918;-93
2023/08/16 15:30:53;;;;;;;;;;;;;;;-145.06;100.00;60892.56;4829204;28;19918;-92
2023/08/16 15:33:32;;;;;;;;;;;;;;;-145.06;100.00;60892.56;4812316;28;19918;-92
2023/08/16 15:36:13;;;;;;;;;;;;;;;-145.06;100.00;60892.56;4811684;28;19914;-92
2023/08/16 15:38:52;;;;;;;;;;;;;;;-145.06;100.00;60892.56;4811534;28;19952;-92
2023/08/16 15:41:32;;;;;;;;;;;;;;;-145.06;100.00;60892.56;4811430;28;19914;-92
2023/08/16 15:44:11;;;;;;;;;;;;;;;-145.06;100.00;60892.56;4811858;28;19914;-93
2023/08/16 15:46:53;;;;;;;;;;;;;;;-145.06;100.00;60892.56;4811501;28;19914;-93
2023/08/16 15:49:33;;;;;;;;;;;;;;;-145.06;100.00;60892.56;4811382;28;19918;-92
2023/08/16 15:52:12;;;;;;;;;;;;;;;-145.06;100.00;60892.56;4810979;28;19918;-92
2023/08/16 15:54:59;;;;;;;;;;;;;;;-145.06;100.00;60892.56;4811461;28;19977;-92
2023/08/16 15:57:40;;;;;;;;;;;;;;;-145.06;100.00;60892.56;4811716;28;19914;-93
2023/08/16 16:00:21;;;;;;;;;;;;;;;-145.06;100.00;60892.56;4830023;28;19914;-92
2023/08/16 16:03:04;;;;;;;;;;;;;;;-145.06;100.00;60892.56;4811882;28;19926;-93
2023/08/16 16:09:00;;;;;;;;;;;;;;;-145.06;100.00;60892.56;4811778;28;19913;-93
2023/08/16 16:11:40;;;;;;;;;;;;;;;-145.06;100.00;60892.56;4811811;28;19914;-93
2023/08/16 16:14:20;;;;;;;;;;;;;;;-145.06;100.00;60892.56;4804437;28;19914;-92
2023/08/16 16:17:20;;;;;;;;;;;;;;;-145.06;100.00;60892.56;4811498;28;20411;-93
2023/08/16 16:20:09;;;;;;;;;;;;;;;-145.06;100.00;60892.56;4811919;28;19914;-92